createdAt,value
2019-04-03T00:00:40.611Z,5.00
2019-04-03T00:03:10.178Z,6.03
2019-04-03T00:05:39.708Z,5.77
2019-04-03T00:08:09.201Z,5.97
2019-04-03T00:10:38.629Z,5.47
2019-04-03T00:13:10.460Z,5.50
2019-04-03T00:15:39.450Z,5.57
2019-04-03T00:18:08.884Z,6.30
2019-04-03T00:20:38.585Z,5.90
2019-04-03T00:23:08.117Z,6.03
2019-04-03T00:25:37.659Z,5.77
2019-04-03T00:28:07.232Z,5.60
2019-04-03T00:30:36.938Z,5.33
2019-04-03T00:33:06.421Z,7.03
2019-04-03T00:35:35.997Z,6.90
2019-04-03T00:38:05.555Z,6.50
2019-04-03T00:40:35.005Z,6.27
2019-04-03T00:43:04.887Z,6.37
2019-04-03T00:45:34.460Z,5.83
2019-04-03T00:48:03.913Z,5.97
2019-04-03T00:50:33.432Z,6.13
2019-04-03T00:53:03.075Z,6.40
2019-04-03T00:55:32.531Z,6.27
2019-04-03T00:58:02.085Z,6.13
2019-04-03T01:00:31.638Z,6.47
2019-04-03T01:03:01.116Z,5.37
2019-04-03T01:05:30.603Z,5.83
2019-04-03T01:08:00.230Z,5.43
2019-04-03T01:10:30.292Z,6.63
2019-04-03T01:13:01.754Z,5.57
2019-04-03T01:15:32.103Z,6.07
2019-04-03T01:18:04.623Z,6.53
2019-04-03T01:20:32.999Z,7.30
2019-04-03T01:23:02.631Z,5.83
2019-04-03T01:25:32.251Z,5.20
2019-04-03T01:28:01.816Z,5.67
2019-04-03T01:30:31.386Z,5.77
2019-04-03T01:33:01.083Z,5.13
2019-04-03T01:35:30.619Z,5.17
2019-04-03T01:38:00.051Z,5.30
2019-04-03T01:40:30.694Z,5.10
2019-04-03T01:43:00.181Z,4.70
2019-04-03T01:45:29.664Z,4.83
2019-04-03T01:47:59.170Z,5.10
2019-04-03T01:50:30.266Z,4.67
2019-04-03T01:53:01.766Z,4.17
2019-04-03T01:55:31.014Z,3.73
2019-04-03T01:58:00.505Z,4.70
2019-04-03T02:00:49.456Z,4.30
2019-04-03T02:03:18.934Z,3.67
2019-04-03T02:05:48.501Z,3.70
2019-04-03T02:08:18.124Z,3.40
2019-04-03T02:10:48.936Z,4.10
2019-04-03T02:13:21.140Z,3.40
2019-04-03T02:15:52.227Z,3.40
2019-04-03T02:18:21.102Z,2.97
2019-04-03T02:20:50.571Z,3.77
2019-04-03T02:23:20.037Z,3.60
2019-04-03T02:25:49.523Z,4.00
2019-04-03T02:28:18.978Z,3.90
2019-04-03T02:30:48.451Z,3.77
2019-04-03T02:33:18.114Z,4.20
2019-04-03T02:35:47.647Z,4.37
2019-04-03T02:38:17.133Z,3.37
2019-04-03T02:40:46.648Z,3.93
2019-04-03T02:43:16.117Z,3.50
2019-04-03T02:45:45.649Z,3.77
2019-04-03T02:48:15.213Z,3.70
2019-04-03T02:50:47.549Z,4.20
2019-04-03T02:53:16.501Z,2.80
2019-04-03T02:55:46.201Z,3.10
2019-04-03T02:58:16.267Z,3.10
2019-04-03T03:00:45.744Z,3.20
2019-04-03T03:03:17.230Z,2.90
2019-04-03T03:05:46.449Z,2.93
2019-04-03T03:08:17.146Z,2.93
2019-04-03T03:10:48.893Z,3.40
2019-04-03T03:13:19.670Z,3.60
2019-04-03T03:15:51.093Z,3.43
2019-04-03T03:18:20.722Z,3.30
2019-04-03T03:20:51.176Z,3.13
2019-04-03T03:23:23.361Z,2.80
2019-04-03T03:25:52.773Z,2.70
2019-04-03T03:28:22.560Z,2.90
2019-04-03T03:30:59.692Z,3.70
2019-04-03T03:33:32.687Z,3.37
2019-04-03T03:35:55.960Z,3.33
2019-04-03T03:38:28.323Z,3.03
2019-04-03T03:41:22.099Z,3.13
2019-04-03T03:43:49.177Z,2.80
2019-04-03T03:46:19.072Z,2.63
2019-04-03T03:48:49.124Z,2.57
2019-04-03T03:51:19.980Z,2.07
2019-04-03T03:53:50.219Z,1.60
2019-04-03T03:56:21.016Z,1.97
2019-04-03T03:58:51.996Z,1.63
2019-04-03T04:01:21.637Z,1.80
2019-04-03T04:03:51.098Z,1.30
2019-04-03T04:06:21.439Z,1.40
2019-04-03T04:08:51.707Z,1.50
2019-04-03T04:11:21.248Z,1.50
2019-04-03T04:13:51.194Z,1.20
2019-04-03T04:16:21.170Z,1.40
2019-04-03T04:18:51.016Z,1.37
2019-04-03T04:21:21.348Z,1.53
2019-04-03T04:23:51.019Z,1.13
2019-04-03T04:26:21.653Z,1.50
2019-04-03T04:28:51.279Z,1.50
2019-04-03T04:31:20.768Z,1.30
2019-04-03T04:33:50.223Z,5.70
2019-04-03T04:36:19.716Z,2.40
2019-04-03T04:38:49.265Z,2.17
2019-04-03T04:41:18.726Z,1.40
2019-04-03T04:43:48.237Z,2.20
2019-04-03T04:46:17.787Z,1.80
2019-04-03T04:48:47.421Z,1.73
2019-04-03T04:51:16.878Z,1.50
2019-04-03T04:53:46.448Z,1.67
2019-04-03T04:56:15.899Z,1.40
2019-04-03T04:58:45.381Z,1.40
2019-04-03T05:01:17.130Z,1.50
2019-04-03T05:03:46.253Z,1.70
2019-04-03T05:06:15.831Z,1.40
2019-04-03T05:08:45.307Z,1.60
2019-04-03T05:11:16.130Z,1.50
2019-04-03T05:13:46.781Z,1.67
2019-04-03T05:16:19.567Z,1.60
2019-04-03T05:18:48.335Z,1.50
2019-04-03T05:21:17.949Z,1.70
2019-04-03T05:23:47.616Z,1.60
2019-04-03T05:26:17.076Z,1.57
2019-04-03T05:28:54.587Z,1.90
2019-04-03T05:31:17.907Z,1.43
2019-04-03T05:33:47.490Z,2.00
2019-04-03T05:36:17.712Z,1.70
2019-04-03T05:38:47.824Z,1.63
2019-04-03T05:41:17.363Z,1.60
2019-04-03T05:43:46.839Z,1.73
2019-04-03T05:46:19.091Z,2.10
2019-04-03T05:48:48.578Z,1.73
2019-04-03T05:51:18.166Z,1.50
2019-04-03T05:53:47.859Z,1.63
2019-04-03T05:56:17.366Z,2.17
2019-04-03T05:58:55.376Z,2.00
2019-04-03T06:01:18.211Z,2.10
2019-04-03T06:03:47.647Z,2.50
2019-04-03T06:06:17.308Z,1.80
2019-04-03T06:08:46.874Z,1.70
2019-04-03T06:11:16.538Z,2.00
2019-04-03T06:13:48.055Z,2.20
2019-04-03T06:16:17.354Z,1.87
2019-04-03T06:18:47.642Z,1.93
2019-04-03T06:21:17.898Z,1.93
2019-04-03T06:23:47.524Z,1.80
2019-04-03T06:26:16.972Z,2.00
2019-04-03T06:28:47.734Z,1.93
2019-04-03T06:31:17.420Z,1.80
2019-04-03T06:33:47.015Z,2.23
2019-04-03T06:36:17.202Z,2.00
2019-04-03T06:38:47.838Z,2.00
2019-04-03T06:41:17.348Z,2.20
2019-04-03T06:43:49.443Z,2.53
2019-04-03T06:46:18.134Z,2.20
2019-04-03T06:48:47.646Z,2.10
2019-04-03T06:51:17.181Z,1.90
2019-04-03T06:53:46.684Z,1.80
2019-04-03T06:56:16.206Z,1.90
2019-04-03T06:58:45.913Z,1.80
2019-04-03T07:01:15.523Z,2.20
2019-04-03T07:03:44.988Z,2.00
2019-04-03T07:06:14.730Z,2.50
2019-04-03T07:08:44.288Z,1.93
2019-04-03T07:11:23.365Z,1.83
2019-04-03T07:13:44.972Z,1.73
2019-04-03T07:16:14.530Z,1.80
2019-04-03T07:18:44.092Z,1.70
2019-04-03T07:21:13.791Z,1.63
2019-04-03T07:23:43.377Z,2.00
2019-04-03T07:26:12.832Z,2.13
2019-04-03T07:28:42.467Z,1.83
2019-04-03T07:31:12.041Z,1.77
2019-04-03T07:33:41.530Z,2.00
2019-04-03T07:36:30.435Z,1.77
2019-04-03T07:38:59.918Z,1.97
2019-04-03T07:41:29.479Z,2.63
2019-04-03T07:43:59.336Z,2.23
2019-04-03T07:46:28.846Z,2.27
2019-04-03T07:49:00.315Z,2.37
2019-04-03T07:51:29.614Z,2.90
2019-04-03T07:53:59.100Z,2.20
2019-04-03T07:56:28.986Z,2.40
2019-04-03T07:58:58.438Z,2.30
2019-04-03T08:01:27.911Z,2.70
2019-04-03T08:03:57.418Z,2.33
2019-04-03T08:06:26.864Z,3.07
2019-04-03T08:09:07.993Z,2.70
2019-04-03T08:11:27.571Z,2.27
2019-04-03T08:13:57.008Z,2.77
2019-04-03T08:16:26.526Z,2.70
2019-04-03T08:18:55.963Z,2.47
2019-04-03T08:21:25.461Z,3.13
2019-04-03T08:23:55.081Z,2.50
2019-04-03T08:26:26.670Z,2.67
2019-04-03T08:28:56.105Z,3.07
2019-04-03T08:31:25.543Z,2.90
2019-04-03T08:33:55.269Z,2.67
2019-04-03T08:36:26.385Z,2.60
2019-04-03T08:38:56.207Z,2.30
2019-04-03T08:41:25.696Z,2.87
2019-04-03T08:43:55.181Z,2.63
2019-04-03T08:46:24.914Z,2.57
2019-04-03T08:48:55.457Z,2.20
2019-04-03T08:51:25.205Z,2.60
2019-04-03T08:53:54.951Z,2.40
2019-04-03T08:56:24.433Z,2.57
2019-04-03T08:58:56.524Z,2.47
2019-04-03T09:01:25.092Z,2.33
2019-04-03T09:03:54.746Z,3.00
2019-04-03T09:06:24.204Z,2.83
2019-04-03T09:08:53.773Z,2.73
2019-04-03T09:11:23.308Z,2.33
2019-04-03T09:13:54.869Z,2.03
2019-04-03T09:16:24.070Z,2.90
2019-04-03T09:18:53.588Z,2.40
2019-04-03T09:21:23.027Z,2.30
2019-04-03T09:23:52.555Z,2.40
2019-04-03T09:26:22.121Z,2.17
2019-04-03T09:28:51.578Z,2.33
2019-04-03T09:31:21.073Z,1.80
2019-04-03T09:33:50.531Z,1.97
2019-04-03T09:36:20.029Z,1.97
2019-04-03T09:38:49.772Z,1.90
2019-04-03T09:41:20.144Z,1.70
2019-04-03T09:43:49.757Z,1.50
2019-04-03T09:46:19.245Z,1.90
2019-04-03T09:48:48.972Z,1.80
2019-04-03T09:51:21.648Z,1.73
2019-04-03T09:53:49.587Z,1.83
2019-04-03T09:56:19.050Z,1.67
2019-04-03T09:58:48.534Z,1.73
2019-04-03T10:01:18.934Z,1.80
2019-04-03T10:03:48.532Z,2.00
2019-04-03T10:06:18.019Z,1.77
2019-04-03T10:08:47.508Z,2.00
2019-04-03T10:11:19.604Z,1.97
2019-04-03T10:13:48.208Z,1.90
2019-04-03T10:16:17.783Z,1.90
2019-04-03T10:18:47.351Z,2.00
2019-04-03T10:21:17.768Z,2.10
2019-04-03T10:23:48.103Z,1.93
2019-04-03T10:26:17.614Z,2.10
2019-04-03T10:28:48.308Z,2.00
2019-04-03T10:31:18.290Z,1.77
2019-04-03T10:33:47.759Z,1.57
2019-04-03T10:36:18.593Z,1.50
2019-04-03T10:38:49.116Z,2.20
2019-04-03T10:41:19.484Z,1.83
2019-04-03T10:43:49.150Z,1.90
2019-04-03T10:46:21.081Z,2.00
2019-04-03T10:48:50.800Z,1.70
2019-04-03T10:51:20.265Z,2.07
2019-04-03T10:53:51.632Z,1.67
2019-04-03T10:56:21.019Z,1.53
2019-04-03T10:58:51.089Z,1.50
2019-04-03T11:01:20.740Z,1.40
2019-04-03T11:03:50.336Z,2.10
2019-04-03T11:06:20.152Z,1.90
2019-04-03T11:08:50.113Z,1.57
2019-04-03T11:11:19.689Z,1.70
2019-04-03T11:13:49.158Z,1.80
2019-04-03T11:16:18.631Z,1.50
2019-04-03T11:18:58.451Z,1.70
2019-04-03T11:21:20.000Z,1.80
2019-04-03T11:23:49.594Z,2.13
2019-04-03T11:26:23.158Z,1.87
2019-04-03T11:28:50.363Z,1.40
2019-04-03T11:31:27.121Z,1.77
2019-04-03T11:33:51.540Z,1.60
2019-04-03T11:36:21.011Z,1.60
2019-04-03T11:38:50.568Z,1.70
2019-04-03T11:41:22.985Z,1.37
2019-04-03T11:43:51.270Z,1.40
2019-04-03T11:46:20.841Z,1.57
2019-04-03T11:48:50.334Z,1.17
2019-04-03T11:51:20.026Z,1.30
2019-04-03T11:53:49.564Z,1.30
2019-04-03T11:56:19.050Z,1.20
2019-04-03T11:58:49.970Z,1.10
2019-04-03T12:01:19.835Z,1.30
2019-04-03T12:03:51.496Z,1.10
2019-04-03T12:06:21.136Z,1.20
2019-04-03T12:08:50.666Z,1.50
2019-04-03T12:11:21.808Z,1.40
2019-04-03T12:13:51.413Z,1.50
2019-04-03T12:16:23.979Z,1.40
2019-04-03T12:18:52.861Z,1.50
2019-04-03T12:21:22.363Z,1.43
2019-04-03T12:23:51.866Z,1.20
2019-04-03T12:26:21.502Z,1.30
2019-04-03T12:28:51.031Z,1.27
2019-04-03T12:31:20.552Z,1.33
2019-04-03T12:33:56.831Z,1.20
2019-04-03T12:36:21.448Z,1.00
2019-04-03T12:38:51.056Z,1.40
2019-04-03T12:41:22.505Z,1.20
2019-04-03T12:43:52.714Z,1.30
2019-04-03T12:46:24.144Z,1.40
2019-04-03T12:48:53.648Z,1.20
2019-04-03T12:51:23.184Z,1.07
2019-04-03T12:53:52.627Z,1.20
2019-04-03T12:56:24.605Z,1.10
2019-04-03T12:58:53.360Z,1.27
2019-04-03T13:01:23.412Z,1.30
2019-04-03T13:03:54.424Z,1.10
2019-04-03T13:06:24.537Z,1.07
2019-04-03T13:08:53.999Z,1.10
2019-04-03T13:11:23.579Z,1.23
2019-04-03T13:13:53.160Z,1.30
2019-04-03T13:16:22.673Z,1.07
2019-04-03T13:18:52.113Z,1.10
2019-04-03T13:21:21.598Z,1.17
2019-04-03T13:23:51.085Z,1.10
2019-04-03T13:26:24.066Z,1.17
2019-04-03T13:28:52.135Z,0.80
2019-04-03T13:31:21.893Z,1.20
2019-04-03T13:33:51.373Z,1.10
2019-04-03T13:36:23.692Z,1.10
2019-04-03T13:38:52.350Z,1.20
2019-04-03T13:41:21.922Z,1.00
2019-04-03T13:43:53.790Z,1.17
2019-04-03T13:46:22.615Z,1.33
2019-04-03T13:48:52.885Z,1.07
2019-04-03T13:51:22.370Z,1.30
2019-04-03T13:53:53.048Z,1.10
2019-04-03T13:56:24.499Z,1.23
2019-04-03T13:58:54.842Z,1.10
2019-04-03T14:01:27.550Z,1.30
2019-04-03T14:03:55.740Z,1.20
2019-04-03T14:06:25.527Z,1.20
2019-04-03T14:08:55.263Z,1.17
2019-04-03T14:11:24.824Z,1.23
2019-04-03T14:13:54.339Z,1.20
2019-04-03T14:16:23.862Z,1.30
2019-04-03T14:18:53.370Z,1.17
2019-04-03T14:21:23.294Z,1.30
2019-04-03T14:23:53.109Z,1.20
2019-04-03T14:26:22.811Z,1.37
2019-04-03T14:28:52.380Z,1.43
2019-04-03T14:31:33.424Z,1.40
2019-04-03T14:33:53.067Z,1.40
2019-04-03T14:36:22.591Z,1.30
2019-04-03T14:38:52.475Z,1.20
2019-04-03T14:41:21.990Z,1.33
2019-04-03T14:43:51.459Z,1.63
2019-04-03T14:46:21.203Z,1.50
2019-04-03T14:48:51.674Z,1.03
2019-04-03T14:51:21.505Z,1.37
2019-04-03T14:53:52.644Z,1.60
2019-04-03T14:56:22.226Z,1.50
2019-04-03T14:58:51.718Z,1.20
2019-04-03T15:01:21.357Z,1.20
2019-04-03T15:03:50.823Z,1.20
2019-04-03T15:06:20.382Z,1.13
2019-04-03T15:08:50.230Z,1.20
2019-04-03T15:11:21.816Z,1.20
2019-04-03T15:13:51.561Z,1.07
2019-04-03T15:16:21.078Z,1.20
2019-04-03T15:18:50.561Z,1.90
2019-04-03T15:21:20.720Z,2.30
2019-04-03T15:23:51.332Z,1.60
2019-04-03T15:26:22.223Z,1.40
2019-04-03T15:28:52.449Z,1.47
2019-04-03T15:31:23.917Z,1.50
2019-04-03T15:33:55.430Z,2.23
2019-04-03T15:36:24.992Z,5.30
2019-04-03T15:38:58.431Z,2.97
2019-04-03T15:41:28.630Z,6.53
2019-04-03T15:43:58.204Z,3.57
2019-04-03T15:46:29.214Z,3.73
2019-04-03T15:48:59.026Z,2.20
2019-04-03T15:51:28.614Z,1.80
2019-04-03T15:53:59.232Z,2.20
2019-04-03T15:56:29.345Z,1.90
2019-04-03T15:58:59.339Z,2.30
2019-04-03T16:01:28.941Z,3.17
2019-04-03T16:03:59.078Z,2.07
2019-04-03T16:06:29.517Z,2.20
2019-04-03T16:08:59.133Z,2.20
2019-04-03T16:11:29.772Z,1.47
2019-04-03T16:14:00.231Z,2.00
2019-04-03T16:16:29.791Z,1.83
2019-04-03T16:18:59.508Z,3.23
2019-04-03T16:21:30.201Z,3.40
2019-04-03T16:24:00.527Z,1.90
2019-04-03T16:26:30.300Z,2.43
2019-04-03T16:28:59.831Z,1.83
2019-04-03T16:31:29.402Z,1.50
2019-04-03T16:33:58.835Z,1.43
2019-04-03T16:36:28.400Z,1.97
2019-04-03T16:38:59.985Z,1.93
2019-04-03T16:41:29.254Z,1.60
2019-04-03T16:43:58.752Z,1.37
2019-04-03T16:46:28.259Z,1.63
2019-04-03T16:48:58.081Z,1.27
2019-04-03T16:51:29.214Z,1.30
2019-04-03T16:54:00.158Z,1.53
2019-04-03T16:56:30.043Z,1.47
2019-04-03T16:59:00.676Z,1.40
2019-04-03T17:01:30.711Z,1.60
2019-04-03T17:04:03.228Z,1.67
2019-04-03T17:06:31.546Z,1.77
2019-04-03T17:09:01.071Z,1.40
2019-04-03T17:11:30.559Z,1.60
2019-04-03T17:14:00.049Z,1.30
2019-04-03T17:16:29.666Z,1.50
2019-04-03T17:18:59.176Z,1.30
2019-04-03T17:21:36.175Z,1.60
2019-04-03T17:24:00.261Z,1.33
2019-04-03T17:26:29.915Z,1.60
2019-04-03T17:29:03.821Z,1.70
2019-04-03T17:31:30.798Z,1.60
2019-04-03T17:34:02.415Z,1.27
2019-04-03T17:36:32.038Z,1.30
2019-04-03T17:39:04.635Z,1.40
2019-04-03T17:41:32.869Z,1.20
2019-04-03T17:44:02.353Z,1.50
2019-04-03T17:46:31.838Z,1.20
2019-04-03T17:49:01.319Z,1.20
2019-04-03T17:51:33.298Z,1.20
2019-04-03T17:54:02.124Z,1.50
2019-04-03T17:56:31.658Z,1.50
2019-04-03T17:59:01.352Z,1.43
2019-04-03T18:01:30.925Z,1.60
2019-04-03T18:04:00.634Z,1.30
2019-04-03T18:06:30.277Z,1.60
2019-04-03T18:08:59.790Z,1.57
2019-04-03T18:11:29.694Z,1.50
2019-04-03T18:13:59.248Z,1.37
2019-04-03T18:16:29.765Z,1.70
2019-04-03T18:18:59.948Z,1.40
2019-04-03T18:21:29.442Z,1.50
2019-04-03T18:23:59.152Z,1.43
2019-04-03T18:26:30.319Z,1.70
2019-04-03T18:29:00.203Z,1.60
2019-04-03T18:31:29.760Z,1.63
2019-04-03T18:33:59.260Z,1.50
2019-04-03T18:36:31.225Z,2.27
2019-04-03T18:39:00.271Z,1.93
2019-04-03T18:41:29.846Z,1.73
2019-04-03T18:43:59.337Z,2.00
2019-04-03T18:46:32.354Z,1.90
2019-04-03T18:49:01.650Z,2.00
2019-04-03T18:51:31.355Z,2.03
2019-04-03T18:54:00.978Z,1.80
2019-04-03T18:56:32.023Z,2.50
2019-04-03T18:59:01.726Z,1.90
2019-04-03T19:01:32.574Z,2.33
2019-04-03T19:04:02.666Z,1.70
2019-04-03T19:06:32.195Z,2.33
2019-04-03T19:09:09.653Z,1.83
2019-04-03T19:11:34.370Z,2.40
2019-04-03T19:14:04.215Z,2.57
2019-04-03T19:16:43.600Z,2.13
2019-04-03T19:19:08.212Z,2.43
2019-04-03T19:21:36.357Z,2.20
2019-04-03T19:24:06.059Z,2.20
2019-04-03T19:26:35.644Z,2.40
2019-04-03T19:29:05.676Z,2.43
2019-04-03T19:31:35.255Z,2.00
2019-04-03T19:34:04.899Z,2.60
2019-04-03T19:36:34.451Z,2.50
2019-04-03T19:39:06.597Z,2.60
2019-04-03T19:41:36.657Z,2.17
2019-04-03T19:44:06.322Z,1.90
2019-04-03T19:46:35.894Z,2.53
2019-04-03T19:49:05.620Z,2.77
2019-04-03T19:51:35.598Z,2.80
2019-04-03T19:54:06.910Z,2.60
2019-04-03T19:56:36.355Z,2.60
2019-04-03T19:59:05.930Z,2.80
2019-04-03T20:01:38.774Z,2.77
2019-04-03T20:04:06.954Z,2.90
2019-04-03T20:06:36.542Z,3.30
2019-04-03T20:09:09.673Z,3.23
2019-04-03T20:11:39.258Z,3.30
2019-04-03T20:14:11.179Z,3.43
2019-04-03T20:16:39.992Z,3.83
2019-04-03T20:19:09.553Z,3.77
2019-04-03T20:21:39.116Z,4.10
2019-04-03T20:24:08.679Z,3.90
2019-04-03T20:26:38.202Z,4.30
2019-04-03T20:29:07.716Z,3.90
2019-04-03T20:31:37.209Z,3.97
2019-04-03T20:34:06.766Z,4.07
2019-04-03T20:36:36.240Z,4.20
2019-04-03T20:39:09.227Z,4.73
2019-04-03T20:41:38.721Z,4.03
2019-04-03T20:44:08.168Z,4.00
2019-04-03T20:46:37.665Z,4.43
2019-04-03T20:49:07.110Z,3.37
2019-04-03T20:51:38.013Z,4.27
2019-04-03T20:54:07.949Z,3.83
2019-04-03T20:56:37.409Z,4.47
2019-04-03T20:59:06.898Z,3.40
2019-04-03T21:01:36.362Z,3.40
2019-04-03T21:04:05.987Z,4.10
2019-04-03T21:06:37.290Z,4.23
2019-04-03T21:09:07.997Z,4.47
2019-04-03T21:11:37.636Z,4.57
2019-04-03T21:14:07.137Z,4.13
2019-04-03T21:16:36.664Z,4.67
2019-04-03T21:19:06.134Z,3.77
2019-04-03T21:21:35.699Z,4.40
2019-04-03T21:24:05.335Z,4.13
2019-04-03T21:26:37.663Z,4.50
2019-04-03T21:29:07.713Z,4.37
2019-04-03T21:31:37.285Z,4.50
2019-04-03T21:34:06.825Z,4.57
2019-04-03T21:36:38.428Z,4.00
2019-04-03T21:39:08.648Z,3.80
2019-04-03T21:41:38.180Z,4.10
2019-04-03T21:44:07.679Z,4.03
2019-04-03T21:46:39.647Z,4.20
2019-04-03T21:49:09.394Z,4.43
2019-04-03T21:51:38.891Z,4.70
2019-04-03T21:54:08.339Z,4.00
2019-04-03T21:56:37.897Z,4.50
2019-04-03T21:59:10.542Z,4.30
2019-04-03T22:01:38.586Z,4.27
2019-04-03T22:04:08.108Z,3.87
2019-04-03T22:06:37.732Z,4.23
2019-04-03T22:09:13.958Z,4.53
2019-04-03T22:11:43.719Z,4.17
2019-04-03T22:14:13.363Z,4.73
2019-04-03T22:16:42.817Z,4.43
2019-04-03T22:19:12.319Z,4.17
2019-04-03T22:21:41.787Z,4.13
2019-04-03T22:24:11.325Z,4.07
2019-04-03T22:26:41.391Z,4.07
2019-04-03T22:29:10.953Z,4.07
2019-04-03T22:31:40.435Z,4.43
2019-04-03T22:34:09.993Z,3.83
2019-04-03T22:36:39.479Z,4.33
2019-04-03T22:39:09.120Z,4.70
2019-04-03T22:41:38.606Z,4.27
2019-04-03T22:44:08.065Z,4.03
2019-04-03T22:46:37.558Z,4.23
2019-04-03T22:49:07.015Z,4.60
2019-04-03T22:51:37.706Z,5.00
2019-04-03T22:54:07.647Z,4.30
2019-04-03T22:56:37.194Z,3.97
2019-04-03T22:59:06.744Z,4.27
2019-04-03T23:01:36.233Z,4.97
2019-04-03T23:04:05.946Z,4.90
2019-04-03T23:06:35.381Z,4.50
2019-04-03T23:09:07.943Z,4.60
2019-04-03T23:11:37.478Z,4.60
2019-04-03T23:14:07.553Z,4.60
2019-04-03T23:16:37.236Z,4.33
2019-04-03T23:19:06.685Z,3.90
2019-04-03T23:21:36.153Z,4.50
2019-04-03T23:24:05.873Z,4.53
2019-04-03T23:26:35.405Z,5.17
2019-04-03T23:29:05.737Z,3.77
2019-04-03T23:31:35.511Z,4.10
2019-04-03T23:34:05.103Z,4.07
2019-04-03T23:36:34.582Z,4.73
2019-04-03T23:39:06.060Z,4.30
2019-04-03T23:41:36.598Z,3.70
2019-04-03T23:44:06.505Z,4.40
2019-04-03T23:46:35.957Z,4.20
2019-04-03T23:49:05.635Z,4.47
2019-04-03T23:51:35.126Z,4.03
2019-04-03T23:54:04.873Z,3.57
2019-04-03T23:56:34.308Z,4.10
2019-04-03T23:59:03.852Z,3.77
